sensor_id;sensor_type;location;lat;lon;timestamp;temperature;humidity
680;DHT22;322;48.846;9.230;2022-12-07T00:01:24;4.70;99.90
680;DHT22;322;48.846;9.230;2022-12-07T00:03:53;4.70;99.90
680;DHT22;322;48.846;9.230;2022-12-07T00:06:22;4.70;99.90
680;DHT22;322;48.846;9.230;2022-12-07T00:08:49;4.70;99.90
680;DHT22;322;48.846;9.230;2022-12-07T00:11:18;4.70;99.90
680;DHT22;322;48.846;9.230;2022-12-07T00:13:46;4.70;99.90
680;DHT22;322;48.846;9.230;2022-12-07T00:16:14;4.70;99.90
680;DHT22;322;48.846;9.230;2022-12-07T00:18:42;4.70;99.90
680;DHT22;322;48.846;9.230;2022-12-07T00:21:12;4.70;99.90
680;DHT22;322;48.846;9.230;2022-12-07T00:23:40;4.60;99.90
680;DHT22;322;48.846;9.230;2022-12-07T00:26:09;4.60;99.90
680;DHT22;322;48.846;9.230;2022-12-07T00:28:36;4.60;99.90
680;DHT22;322;48.846;9.230;2022-12-07T00:31:04;4.60;99.90
680;DHT22;322;48.846;9.230;2022-12-07T00:33:31;4.60;99.90
680;DHT22;322;48.846;9.230;2022-12-07T00:35:58;4.60;99.90
680;DHT22;322;48.846;9.230;2022-12-07T00:38:29;4.60;99.90
680;DHT22;322;48.846;9.230;2022-12-07T00:40:57;4.60;99.90
680;DHT22;322;48.846;9.230;2022-12-07T00:43:24;4.60;99.90
680;DHT22;322;48.846;9.230;2022-12-07T00:45:51;4.60;99.90
680;DHT22;322;48.846;9.230;2022-12-07T00:48:18;4.60;99.90
680;DHT22;322;48.846;9.230;2022-12-07T00:50:45;4.60;99.90
680;DHT22;322;48.846;9.230;2022-12-07T00:53:12;4.50;99.90
680;DHT22;322;48.846;9.230;2022-12-07T00:55:40;4.50;99.90
680;DHT22;322;48.846;9.230;2022-12-07T00:58:07;4.50;99.90
680;DHT22;322;48.846;9.230;2022-12-07T01:00:36;4.50;99.90
680;DHT22;322;48.846;9.230;2022-12-07T01:03:03;4.40;99.90
680;DHT22;322;48.846;9.230;2022-12-07T01:05:30;4.40;99.90
680;DHT22;322;48.846;9.230;2022-12-07T01:07:57;4.40;99.90
680;DHT22;322;48.846;9.230;2022-12-07T01:10:24;4.40;99.90
680;DHT22;322;48.846;9.230;2022-12-07T01:12:52;4.40;99.90
680;DHT22;322;48.846;9.230;2022-12-07T01:15:19;4.30;99.90
680;DHT22;322;48.846;9.230;2022-12-07T01:17:46;4.40;99.90
680;DHT22;322;48.846;9.230;2022-12-07T01:20:13;4.40;99.90
680;DHT22;322;48.846;9.230;2022-12-07T01:22:42;4.40;99.90
680;DHT22;322;48.846;9.230;2022-12-07T01:25:10;4.40;99.90
680;DHT22;322;48.846;9.230;2022-12-07T01:27:37;4.30;99.90
680;DHT22;322;48.846;9.230;2022-12-07T01:30:07;4.40;99.90
680;DHT22;322;48.846;9.230;2022-12-07T01:32:34;4.40;99.90
680;DHT22;322;48.846;9.230;2022-12-07T01:35:01;4.40;99.90
680;DHT22;322;48.846;9.230;2022-12-07T01:37:27;4.40;99.90
680;DHT22;322;48.846;9.230;2022-12-07T01:39:54;4.40;99.90
680;DHT22;322;48.846;9.230;2022-12-07T01:42:21;4.30;99.90
680;DHT22;322;48.846;9.230;2022-12-07T01:47:52;4.40;99.90
680;DHT22;322;48.846;9.230;2022-12-07T01:50:21;4.40;99.90
680;DHT22;322;48.846;9.230;2022-12-07T01:52:49;4.40;99.90
680;DHT22;322;48.846;9.230;2022-12-07T01:55:18;4.40;99.90
680;DHT22;322;48.846;9.230;2022-12-07T01:57:49;4.40;99.90
680;DHT22;322;48.846;9.230;2022-12-07T02:00:17;4.40;99.90
680;DHT22;322;48.846;9.230;2022-12-07T02:02:49;4.40;99.90
680;DHT22;322;48.846;9.230;2022-12-07T02:05:18;4.40;99.90
680;DHT22;322;48.846;9.230;2022-12-07T02:07:46;4.30;99.90
680;DHT22;322;48.846;9.230;2022-12-07T02:10:15;4.30;99.90
680;DHT22;322;48.846;9.230;2022-12-07T02:12:42;4.30;99.90
680;DHT22;322;48.846;9.230;2022-12-07T02:15:11;4.40;99.90
680;DHT22;322;48.846;9.230;2022-12-07T02:17:45;4.30;99.90
680;DHT22;322;48.846;9.230;2022-12-07T02:20:23;4.30;99.90
680;DHT22;322;48.846;9.230;2022-12-07T02:26:17;4.30;99.90
680;DHT22;322;48.846;9.230;2022-12-07T02:29:00;4.30;99.90
680;DHT22;322;48.846;9.230;2022-12-07T02:31:33;4.30;99.90
680;DHT22;322;48.846;9.230;2022-12-07T02:34:05;4.30;99.90
680;DHT22;322;48.846;9.230;2022-12-07T02:36:41;4.30;99.90
680;DHT22;322;48.846;9.230;2022-12-07T02:39:14;4.30;99.90
680;DHT22;322;48.846;9.230;2022-12-07T02:41:46;4.40;99.90
680;DHT22;322;48.846;9.230;2022-12-07T02:44:18;4.40;99.90
680;DHT22;322;48.846;9.230;2022-12-07T02:46:50;4.40;99.90
680;DHT22;322;48.846;9.230;2022-12-07T02:49:19;4.30;99.90
680;DHT22;322;48.846;9.230;2022-12-07T02:51:48;4.30;99.90
680;DHT22;322;48.846;9.230;2022-12-07T02:54:17;4.30;99.90
680;DHT22;322;48.846;9.230;2022-12-07T02:56:48;4.30;99.90
680;DHT22;322;48.846;9.230;2022-12-07T02:59:25;4.20;99.90
680;DHT22;322;48.846;9.230;2022-12-07T03:01:58;4.30;99.90
680;DHT22;322;48.846;9.230;2022-12-07T03:04:39;4.30;99.90
680;DHT22;322;48.846;9.230;2022-12-07T03:07:26;4.30;99.90
680;DHT22;322;48.846;9.230;2022-12-07T03:10:02;4.40;99.90
680;DHT22;322;48.846;9.230;2022-12-07T03:12:36;4.30;99.90
680;DHT22;322;48.846;9.230;2022-12-07T03:15:12;4.30;99.90
680;DHT22;322;48.846;9.230;2022-12-07T03:17:42;4.30;99.90
680;DHT22;322;48.846;9.230;2022-12-07T03:20:13;4.30;99.90
680;DHT22;322;48.846;9.230;2022-12-07T03:22:43;4.30;99.90
680;DHT22;322;48.846;9.230;2022-12-07T03:25:12;4.30;99.90
680;DHT22;322;48.846;9.230;2022-12-07T03:27:43;4.30;99.90
680;DHT22;322;48.846;9.230;2022-12-07T03:30:16;4.40;99.90
680;DHT22;322;48.846;9.230;2022-12-07T03:32:45;4.40;99.90
680;DHT22;322;48.846;9.230;2022-12-07T03:35:16;4.30;99.90
680;DHT22;322;48.846;9.230;2022-12-07T03:37:47;4.30;99.90
680;DHT22;322;48.846;9.230;2022-12-07T03:40:19;4.30;99.90
680;DHT22;322;48.846;9.230;2022-12-07T03:42:50;4.20;99.90
680;DHT22;322;48.846;9.230;2022-12-07T03:45:21;4.20;99.90
680;DHT22;322;48.846;9.230;2022-12-07T03:47:53;4.20;99.90
680;DHT22;322;48.846;9.230;2022-12-07T03:50:27;4.10;99.90
680;DHT22;322;48.846;9.230;2022-12-07T03:52:58;3.90;99.90
680;DHT22;322;48.846;9.230;2022-12-07T03:55:28;3.90;99.90
680;DHT22;322;48.846;9.230;2022-12-07T03:57:58;3.80;99.90
680;DHT22;322;48.846;9.230;2022-12-07T04:00:28;3.80;99.90
680;DHT22;322;48.846;9.230;2022-12-07T04:02:55;3.80;99.90
680;DHT22;322;48.846;9.230;2022-12-07T04:05:22;3.70;99.90
680;DHT22;322;48.846;9.230;2022-12-07T04:07:49;3.70;99.90
680;DHT22;322;48.846;9.230;2022-12-07T04:10:16;3.60;99.90
680;DHT22;322;48.846;9.230;2022-12-07T04:12:42;3.50;99.90
680;DHT22;322;48.846;9.230;2022-12-07T04:15:10;3.40;99.90
680;DHT22;322;48.846;9.230;2022-12-07T04:17:38;3.40;99.90
680;DHT22;322;48.846;9.230;2022-12-07T04:20:07;3.30;99.90
680;DHT22;322;48.846;9.230;2022-12-07T04:22:34;3.10;99.90
680;DHT22;322;48.846;9.230;2022-12-07T04:25:00;3.10;99.90
680;DHT22;322;48.846;9.230;2022-12-07T04:27:27;3.20;99.90
680;DHT22;322;48.846;9.230;2022-12-07T04:29:54;3.30;99.90
680;DHT22;322;48.846;9.230;2022-12-07T04:32:21;3.30;99.90
680;DHT22;322;48.846;9.230;2022-12-07T04:34:49;3.40;99.90
680;DHT22;322;48.846;9.230;2022-12-07T04:37:16;3.40;99.90
680;DHT22;322;48.846;9.230;2022-12-07T04:39:43;3.40;99.90
680;DHT22;322;48.846;9.230;2022-12-07T04:42:11;3.50;99.90
680;DHT22;322;48.846;9.230;2022-12-07T04:44:38;3.50;99.90
680;DHT22;322;48.846;9.230;2022-12-07T04:47:05;3.50;99.90
680;DHT22;322;48.846;9.230;2022-12-07T04:49:32;3.50;99.90
680;DHT22;322;48.846;9.230;2022-12-07T04:52:00;3.40;99.90
680;DHT22;322;48.846;9.230;2022-12-07T04:54:27;3.50;99.90
680;DHT22;322;48.846;9.230;2022-12-07T04:56:53;3.40;99.90
680;DHT22;322;48.846;9.230;2022-12-07T04:59:20;3.40;99.90
680;DHT22;322;48.846;9.230;2022-12-07T05:01:47;3.40;99.90
680;DHT22;322;48.846;9.230;2022-12-07T05:04:14;3.40;99.90
680;DHT22;322;48.846;9.230;2022-12-07T05:06:41;3.40;99.90
680;DHT22;322;48.846;9.230;2022-12-07T05:09:09;3.30;99.90
680;DHT22;322;48.846;9.230;2022-12-07T05:11:36;3.20;99.90
680;DHT22;322;48.846;9.230;2022-12-07T05:14:09;3.20;99.90
680;DHT22;322;48.846;9.230;2022-12-07T05:16:37;3.20;99.90
680;DHT22;322;48.846;9.230;2022-12-07T05:19:05;3.10;99.90
680;DHT22;322;48.846;9.230;2022-12-07T05:21:32;3.10;99.90
680;DHT22;322;48.846;9.230;2022-12-07T05:23:59;3.00;99.90
680;DHT22;322;48.846;9.230;2022-12-07T05:26:27;3.00;99.90
680;DHT22;322;48.846;9.230;2022-12-07T05:28:55;2.90;99.90
680;DHT22;322;48.846;9.230;2022-12-07T05:31:24;2.90;99.90
680;DHT22;322;48.846;9.230;2022-12-07T05:33:51;2.90;99.90
680;DHT22;322;48.846;9.230;2022-12-07T05:36:17;2.80;99.90
680;DHT22;322;48.846;9.230;2022-12-07T05:38:44;2.80;99.90
680;DHT22;322;48.846;9.230;2022-12-07T05:41:13;2.80;99.90
680;DHT22;322;48.846;9.230;2022-12-07T05:43:55;2.80;99.90
680;DHT22;322;48.846;9.230;2022-12-07T05:46:22;2.90;99.90
680;DHT22;322;48.846;9.230;2022-12-07T05:48:49;2.90;99.90
680;DHT22;322;48.846;9.230;2022-12-07T05:51:16;2.90;99.90
680;DHT22;322;48.846;9.230;2022-12-07T05:53:43;3.00;99.90
680;DHT22;322;48.846;9.230;2022-12-07T05:56:09;3.00;99.90
680;DHT22;322;48.846;9.230;2022-12-07T05:58:36;3.00;99.90
680;DHT22;322;48.846;9.230;2022-12-07T06:01:22;3.00;99.90
680;DHT22;322;48.846;9.230;2022-12-07T06:03:49;3.10;99.90
680;DHT22;322;48.846;9.230;2022-12-07T06:06:15;3.20;99.90
680;DHT22;322;48.846;9.230;2022-12-07T06:08:42;3.20;99.90
680;DHT22;322;48.846;9.230;2022-12-07T06:11:09;3.30;99.90
680;DHT22;322;48.846;9.230;2022-12-07T06:13:53;3.30;99.90
680;DHT22;322;48.846;9.230;2022-12-07T06:16:21;3.40;99.90
680;DHT22;322;48.846;9.230;2022-12-07T06:18:48;3.40;99.90
680;DHT22;322;48.846;9.230;2022-12-07T06:21:15;3.40;99.90
680;DHT22;322;48.846;9.230;2022-12-07T06:23:42;3.40;99.90
680;DHT22;322;48.846;9.230;2022-12-07T06:26:08;3.40;99.90
680;DHT22;322;48.846;9.230;2022-12-07T06:28:35;3.40;99.90
680;DHT22;322;48.846;9.230;2022-12-07T06:31:02;3.30;99.90
680;DHT22;322;48.846;9.230;2022-12-07T06:33:31;3.30;99.90
680;DHT22;322;48.846;9.230;2022-12-07T06:35:57;3.30;99.90
680;DHT22;322;48.846;9.230;2022-12-07T06:38:24;3.40;99.90
680;DHT22;322;48.846;9.230;2022-12-07T06:40:51;3.40;99.90
680;DHT22;322;48.846;9.230;2022-12-07T06:43:17;3.40;99.90
680;DHT22;322;48.846;9.230;2022-12-07T06:45:44;3.40;99.90
680;DHT22;322;48.846;9.230;2022-12-07T06:48:11;3.40;99.90
680;DHT22;322;48.846;9.230;2022-12-07T06:50:39;3.40;99.90
680;DHT22;322;48.846;9.230;2022-12-07T06:53:06;3.40;99.90
680;DHT22;322;48.846;9.230;2022-12-07T06:55:32;3.40;99.90
680;DHT22;322;48.846;9.230;2022-12-07T06:57:59;3.40;99.90
680;DHT22;322;48.846;9.230;2022-12-07T07:00:27;3.40;99.90
680;DHT22;322;48.846;9.230;2022-12-07T07:02:54;3.40;99.90
680;DHT22;322;48.846;9.230;2022-12-07T07:05:20;3.30;99.90
680;DHT22;322;48.846;9.230;2022-12-07T07:07:49;3.40;99.90
680;DHT22;322;48.846;9.230;2022-12-07T07:10:16;3.50;99.90
680;DHT22;322;48.846;9.230;2022-12-07T07:12:43;3.40;99.90
680;DHT22;322;48.846;9.230;2022-12-07T07:15:10;3.50;99.90
680;DHT22;322;48.846;9.230;2022-12-07T07:17:37;3.50;99.90
680;DHT22;322;48.846;9.230;2022-12-07T07:20:05;3.60;99.90
680;DHT22;322;48.846;9.230;2022-12-07T07:22:32;3.60;99.90
680;DHT22;322;48.846;9.230;2022-12-07T07:25:00;3.60;99.90
680;DHT22;322;48.846;9.230;2022-12-07T07:27:27;3.70;99.90
680;DHT22;322;48.846;9.230;2022-12-07T07:29:53;3.70;99.90
680;DHT22;322;48.846;9.230;2022-12-07T07:32:20;3.70;99.90
680;DHT22;322;48.846;9.230;2022-12-07T07:34:47;3.80;99.90
680;DHT22;322;48.846;9.230;2022-12-07T07:37:14;3.80;99.90
680;DHT22;322;48.846;9.230;2022-12-07T07:39:41;3.90;99.90
680;DHT22;322;48.846;9.230;2022-12-07T07:42:09;3.90;99.90
680;DHT22;322;48.846;9.230;2022-12-07T07:44:36;4.00;99.90
680;DHT22;322;48.846;9.230;2022-12-07T07:47:03;4.00;99.90
680;DHT22;322;48.846;9.230;2022-12-07T07:49:29;4.00;99.90
680;DHT22;322;48.846;9.230;2022-12-07T07:51:56;4.10;99.90
680;DHT22;322;48.846;9.230;2022-12-07T07:54:23;4.20;99.90
680;DHT22;322;48.846;9.230;2022-12-07T07:56:50;4.30;99.90
680;DHT22;322;48.846;9.230;2022-12-07T07:59:18;4.30;99.90
680;DHT22;322;48.846;9.230;2022-12-07T08:01:45;4.30;99.90
680;DHT22;322;48.846;9.230;2022-12-07T08:04:11;4.40;99.90
680;DHT22;322;48.846;9.230;2022-12-07T08:06:38;4.40;99.90
680;DHT22;322;48.846;9.230;2022-12-07T08:09:07;4.50;99.90
680;DHT22;322;48.846;9.230;2022-12-07T08:11:34;4.50;99.90
680;DHT22;322;48.846;9.230;2022-12-07T08:14:01;4.60;99.90
680;DHT22;322;48.846;9.230;2022-12-07T08:16:29;4.70;99.90
680;DHT22;322;48.846;9.230;2022-12-07T08:18:56;4.70;99.90
680;DHT22;322;48.846;9.230;2022-12-07T08:21:23;4.90;99.90
680;DHT22;322;48.846;9.230;2022-12-07T08:23:50;5.00;99.90
680;DHT22;322;48.846;9.230;2022-12-07T08:26:17;5.00;99.90
680;DHT22;322;48.846;9.230;2022-12-07T08:28:44;5.10;99.90
680;DHT22;322;48.846;9.230;2022-12-07T08:31:14;5.30;99.90
680;DHT22;322;48.846;9.230;2022-12-07T08:33:44;5.30;99.90
680;DHT22;322;48.846;9.230;2022-12-07T08:36:12;5.40;99.90
680;DHT22;322;48.846;9.230;2022-12-07T08:38:40;5.50;99.90
680;DHT22;322;48.846;9.230;2022-12-07T08:41:08;5.50;99.90
680;DHT22;322;48.846;9.230;2022-12-07T08:43:35;5.60;99.90
680;DHT22;322;48.846;9.230;2022-12-07T08:46:07;5.60;99.90
680;DHT22;322;48.846;9.230;2022-12-07T08:48:38;5.70;99.90
680;DHT22;322;48.846;9.230;2022-12-07T08:51:07;5.70;99.90
680;DHT22;322;48.846;9.230;2022-12-07T08:53:34;5.80;99.90
680;DHT22;322;48.846;9.230;2022-12-07T08:56:02;5.80;99.90
680;DHT22;322;48.846;9.230;2022-12-07T08:58:28;5.80;99.90
680;DHT22;322;48.846;9.230;2022-12-07T09:00:55;5.90;99.90
680;DHT22;322;48.846;9.230;2022-12-07T09:03:22;5.80;99.90
680;DHT22;322;48.846;9.230;2022-12-07T09:05:49;5.90;99.90
680;DHT22;322;48.846;9.230;2022-12-07T09:08:17;5.80;99.90
680;DHT22;322;48.846;9.230;2022-12-07T09:10:44;5.90;99.90
680;DHT22;322;48.846;9.230;2022-12-07T09:13:11;6.00;99.90
680;DHT22;322;48.846;9.230;2022-12-07T09:15:38;6.10;99.90
680;DHT22;322;48.846;9.230;2022-12-07T09:18:05;6.20;99.90
680;DHT22;322;48.846;9.230;2022-12-07T09:20:32;6.30;99.90
680;DHT22;322;48.846;9.230;2022-12-07T09:22:59;6.30;99.90
680;DHT22;322;48.846;9.230;2022-12-07T09:25:27;6.30;99.90
680;DHT22;322;48.846;9.230;2022-12-07T09:27:57;6.50;99.90
680;DHT22;322;48.846;9.230;2022-12-07T09:30:25;6.60;99.90
680;DHT22;322;48.846;9.230;2022-12-07T09:32:53;6.70;99.90
680;DHT22;322;48.846;9.230;2022-12-07T09:35:19;6.70;99.90
680;DHT22;322;48.846;9.230;2022-12-07T09:37:46;6.80;99.90
680;DHT22;322;48.846;9.230;2022-12-07T09:40:15;6.80;99.90
680;DHT22;322;48.846;9.230;2022-12-07T09:42:47;6.90;99.90
680;DHT22;322;48.846;9.230;2022-12-07T09:45:18;6.90;99.90
680;DHT22;322;48.846;9.230;2022-12-07T09:47:46;6.70;99.90
680;DHT22;322;48.846;9.230;2022-12-07T09:50:15;6.70;99.90
680;DHT22;322;48.846;9.230;2022-12-07T09:52:44;6.60;99.90
680;DHT22;322;48.846;9.230;2022-12-07T09:55:15;6.60;99.90
680;DHT22;322;48.846;9.230;2022-12-07T09:57:44;6.60;99.90
680;DHT22;322;48.846;9.230;2022-12-07T10:00:14;6.50;99.90
680;DHT22;322;48.846;9.230;2022-12-07T10:02:43;6.40;99.90
680;DHT22;322;48.846;9.230;2022-12-07T10:05:14;6.40;99.90
680;DHT22;322;48.846;9.230;2022-12-07T10:07:41;6.40;99.90
680;DHT22;322;48.846;9.230;2022-12-07T10:10:15;6.50;99.90
680;DHT22;322;48.846;9.230;2022-12-07T10:12:55;6.50;99.90
680;DHT22;322;48.846;9.230;2022-12-07T10:15:22;6.50;99.90
680;DHT22;322;48.846;9.230;2022-12-07T10:17:51;6.40;99.90
680;DHT22;322;48.846;9.230;2022-12-07T10:20:22;6.40;99.90
680;DHT22;322;48.846;9.230;2022-12-07T10:22:58;6.20;99.90
680;DHT22;322;48.846;9.230;2022-12-07T10:25:28;6.20;99.90
680;DHT22;322;48.846;9.230;2022-12-07T10:28:12;6.20;99.90
680;DHT22;322;48.846;9.230;2022-12-07T10:30:51;6.30;99.90
680;DHT22;322;48.846;9.230;2022-12-07T10:33:32;6.20;99.90
680;DHT22;322;48.846;9.230;2022-12-07T10:36:00;6.20;99.90
680;DHT22;322;48.846;9.230;2022-12-07T10:38:33;6.20;99.90
680;DHT22;322;48.846;9.230;2022-12-07T10:41:08;6.30;99.90
680;DHT22;322;48.846;9.230;2022-12-07T10:43:52;6.30;99.90
680;DHT22;322;48.846;9.230;2022-12-07T10:46:51;6.30;99.90
680;DHT22;322;48.846;9.230;2022-12-07T10:49:44;6.40;99.90
680;DHT22;322;48.846;9.230;2022-12-07T10:52:23;6.30;99.90
680;DHT22;322;48.846;9.230;2022-12-07T10:55:08;6.30;99.90
680;DHT22;322;48.846;9.230;2022-12-07T10:57:47;6.30;99.90
680;DHT22;322;48.846;9.230;2022-12-07T11:00:23;6.40;99.90
680;DHT22;322;48.846;9.230;2022-12-07T11:06:10;6.40;99.90
680;DHT22;322;48.846;9.230;2022-12-07T11:08:52;6.30;99.90
680;DHT22;322;48.846;9.230;2022-12-07T11:11:32;6.30;99.90
680;DHT22;322;48.846;9.230;2022-12-07T11:14:16;6.20;99.90
680;DHT22;322;48.846;9.230;2022-12-07T11:16:55;6.20;99.90
680;DHT22;322;48.846;9.230;2022-12-07T11:19:47;6.10;99.90
680;DHT22;322;48.846;9.230;2022-12-07T11:22:22;6.10;99.90
680;DHT22;322;48.846;9.230;2022-12-07T11:24:56;6.00;99.90
680;DHT22;322;48.846;9.230;2022-12-07T11:27:32;6.00;99.90
680;DHT22;322;48.846;9.230;2022-12-07T11:30:14;6.10;99.90
680;DHT22;322;48.846;9.230;2022-12-07T11:32:57;6.10;99.90
680;DHT22;322;48.846;9.230;2022-12-07T11:35:36;6.00;99.90
680;DHT22;322;48.846;9.230;2022-12-07T11:38:10;5.90;99.90
680;DHT22;322;48.846;9.230;2022-12-07T11:40:38;5.80;99.90
680;DHT22;322;48.846;9.230;2022-12-07T11:43:17;5.70;99.90
680;DHT22;322;48.846;9.230;2022-12-07T11:45:49;5.70;99.90
680;DHT22;322;48.846;9.230;2022-12-07T11:48:24;5.60;99.90
680;DHT22;322;48.846;9.230;2022-12-07T11:50:54;5.60;99.90
680;DHT22;322;48.846;9.230;2022-12-07T11:53:25;5.60;99.90
680;DHT22;322;48.846;9.230;2022-12-07T11:55:57;5.70;99.90
680;DHT22;322;48.846;9.230;2022-12-07T11:58:48;5.70;99.90
680;DHT22;322;48.846;9.230;2022-12-07T12:01:26;5.90;99.90
680;DHT22;322;48.846;9.230;2022-12-07T12:04:01;5.90;99.90
680;DHT22;322;48.846;9.230;2022-12-07T12:06:29;5.90;99.90
680;DHT22;322;48.846;9.230;2022-12-07T12:09:01;6.00;99.90
680;DHT22;322;48.846;9.230;2022-12-07T12:11:44;5.90;99.90
680;DHT22;322;48.846;9.230;2022-12-07T12:14:26;5.80;99.90
680;DHT22;322;48.846;9.230;2022-12-07T12:17:36;5.80;99.90
680;DHT22;322;48.846;9.230;2022-12-07T12:20:20;5.80;99.90
680;DHT22;322;48.846;9.230;2022-12-07T12:22:53;5.80;99.90
680;DHT22;322;48.846;9.230;2022-12-07T12:25:24;5.70;99.90
680;DHT22;322;48.846;9.230;2022-12-07T12:27:54;5.80;99.90
680;DHT22;322;48.846;9.230;2022-12-07T12:30:31;5.80;99.90
680;DHT22;322;48.846;9.230;2022-12-07T12:33:05;5.90;99.90
680;DHT22;322;48.846;9.230;2022-12-07T12:35:36;5.90;99.90
680;DHT22;322;48.846;9.230;2022-12-07T12:38:29;5.90;99.90
680;DHT22;322;48.846;9.230;2022-12-07T12:41:00;6.00;99.90
680;DHT22;322;48.846;9.230;2022-12-07T12:43:44;6.00;99.90
680;DHT22;322;48.846;9.230;2022-12-07T12:46:52;6.00;99.90
680;DHT22;322;48.846;9.230;2022-12-07T12:49:35;6.10;99.90
680;DHT22;322;48.846;9.230;2022-12-07T12:55:15;6.10;99.90
680;DHT22;322;48.846;9.230;2022-12-07T12:57:46;6.10;99.90
680;DHT22;322;48.846;9.230;2022-12-07T13:00:17;6.20;99.90
680;DHT22;322;48.846;9.230;2022-12-07T13:02:48;6.20;99.90
680;DHT22;322;48.846;9.230;2022-12-07T13:05:19;6.20;99.90
680;DHT22;322;48.846;9.230;2022-12-07T13:07:56;6.20;99.90
680;DHT22;322;48.846;9.230;2022-12-07T13:10:42;6.20;99.90
680;DHT22;322;48.846;9.230;2022-12-07T13:13:29;6.20;99.90
680;DHT22;322;48.846;9.230;2022-12-07T13:18:56;6.20;99.90
680;DHT22;322;48.846;9.230;2022-12-07T13:21:43;6.20;99.90
680;DHT22;322;48.846;9.230;2022-12-07T13:24:12;6.20;99.90
680;DHT22;322;48.846;9.230;2022-12-07T13:26:42;6.10;99.90
680;DHT22;322;48.846;9.230;2022-12-07T13:29:12;6.10;99.90
680;DHT22;322;48.846;9.230;2022-12-07T13:31:41;6.00;99.90
680;DHT22;322;48.846;9.230;2022-12-07T13:34:30;6.00;99.90
680;DHT22;322;48.846;9.230;2022-12-07T13:36:58;6.00;99.90
680;DHT22;322;48.846;9.230;2022-12-07T13:39:27;5.90;99.90
680;DHT22;322;48.846;9.230;2022-12-07T13:41:57;6.00;99.90
680;DHT22;322;48.846;9.230;2022-12-07T13:44:27;5.90;99.90
680;DHT22;322;48.846;9.230;2022-12-07T13:46:59;5.90;99.90
680;DHT22;322;48.846;9.230;2022-12-07T13:49:29;5.80;99.90
680;DHT22;322;48.846;9.230;2022-12-07T13:52:14;5.80;99.90
680;DHT22;322;48.846;9.230;2022-12-07T13:54:45;5.80;99.90
680;DHT22;322;48.846;9.230;2022-12-07T13:57:13;5.80;99.90
680;DHT22;322;48.846;9.230;2022-12-07T13:59:40;5.90;99.90
680;DHT22;322;48.846;9.230;2022-12-07T14:02:18;5.80;99.90
680;DHT22;322;48.846;9.230;2022-12-07T14:04:45;5.90;99.90
680;DHT22;322;48.846;9.230;2022-12-07T14:07:21;5.80;99.90
680;DHT22;322;48.846;9.230;2022-12-07T14:09:58;5.90;99.90
680;DHT22;322;48.846;9.230;2022-12-07T14:12:26;5.90;99.90
680;DHT22;322;48.846;9.230;2022-12-07T14:14:54;6.00;99.90
680;DHT22;322;48.846;9.230;2022-12-07T14:17:23;6.00;99.90
680;DHT22;322;48.846;9.230;2022-12-07T14:19:52;6.00;99.90
680;DHT22;322;48.846;9.230;2022-12-07T14:22:31;6.00;99.90
680;DHT22;322;48.846;9.230;2022-12-07T14:25:16;6.10;99.90
680;DHT22;322;48.846;9.230;2022-12-07T14:27:55;6.10;99.90
680;DHT22;322;48.846;9.230;2022-12-07T14:30:24;6.00;99.90
680;DHT22;322;48.846;9.230;2022-12-07T14:32:53;6.10;99.90
680;DHT22;322;48.846;9.230;2022-12-07T14:35:20;6.10;99.90
680;DHT22;322;48.846;9.230;2022-12-07T14:37:48;6.10;99.90
680;DHT22;322;48.846;9.230;2022-12-07T14:40:19;6.00;99.90
680;DHT22;322;48.846;9.230;2022-12-07T14:42:47;6.00;99.90
680;DHT22;322;48.846;9.230;2022-12-07T14:45:17;6.00;99.90
680;DHT22;322;48.846;9.230;2022-12-07T14:47:45;5.90;99.90
680;DHT22;322;48.846;9.230;2022-12-07T14:50:14;5.80;99.90
680;DHT22;322;48.846;9.230;2022-12-07T14:52:42;5.80;99.90
680;DHT22;322;48.846;9.230;2022-12-07T14:55:14;5.80;99.90
680;DHT22;322;48.846;9.230;2022-12-07T14:57:44;5.70;99.90
680;DHT22;322;48.846;9.230;2022-12-07T15:00:14;5.70;99.90
680;DHT22;322;48.846;9.230;2022-12-07T15:02:42;5.60;99.90
680;DHT22;322;48.846;9.230;2022-12-07T15:05:09;5.60;99.90
680;DHT22;322;48.846;9.230;2022-12-07T15:07:36;5.60;99.90
680;DHT22;322;48.846;9.230;2022-12-07T15:10:04;5.50;99.90
680;DHT22;322;48.846;9.230;2022-12-07T15:12:31;5.50;99.90
680;DHT22;322;48.846;9.230;2022-12-07T15:14:59;5.40;99.90
680;DHT22;322;48.846;9.230;2022-12-07T15:17:27;5.40;99.90
680;DHT22;322;48.846;9.230;2022-12-07T15:19:54;5.30;99.90
680;DHT22;322;48.846;9.230;2022-12-07T15:22:20;5.20;99.90
680;DHT22;322;48.846;9.230;2022-12-07T15:24:47;5.20;99.90
680;DHT22;322;48.846;9.230;2022-12-07T15:27:14;5.20;99.90
680;DHT22;322;48.846;9.230;2022-12-07T15:29:41;5.20;99.90
680;DHT22;322;48.846;9.230;2022-12-07T15:32:09;5.10;99.90
680;DHT22;322;48.846;9.230;2022-12-07T15:34:35;5.00;99.90
680;DHT22;322;48.846;9.230;2022-12-07T15:37:02;5.00;99.90
680;DHT22;322;48.846;9.230;2022-12-07T15:39:29;4.90;99.90
680;DHT22;322;48.846;9.230;2022-12-07T15:41:56;4.90;99.90
680;DHT22;322;48.846;9.230;2022-12-07T15:44:23;4.90;99.90
680;DHT22;322;48.846;9.230;2022-12-07T15:47:08;4.90;99.90
680;DHT22;322;48.846;9.230;2022-12-07T15:49:35;4.90;99.90
680;DHT22;322;48.846;9.230;2022-12-07T15:52:02;4.90;99.90
680;DHT22;322;48.846;9.230;2022-12-07T15:54:30;4.90;99.90
680;DHT22;322;48.846;9.230;2022-12-07T15:56:57;4.80;99.90
680;DHT22;322;48.846;9.230;2022-12-07T15:59:27;4.80;99.90
680;DHT22;322;48.846;9.230;2022-12-07T16:01:54;4.80;99.90
680;DHT22;322;48.846;9.230;2022-12-07T16:04:22;4.70;99.90
680;DHT22;322;48.846;9.230;2022-12-07T16:06:49;4.80;99.90
680;DHT22;322;48.846;9.230;2022-12-07T16:09:16;4.80;99.90
680;DHT22;322;48.846;9.230;2022-12-07T16:11:43;4.80;99.90
680;DHT22;322;48.846;9.230;2022-12-07T16:14:10;4.70;99.90
680;DHT22;322;48.846;9.230;2022-12-07T16:16:36;4.60;99.90
680;DHT22;322;48.846;9.230;2022-12-07T16:19:05;4.60;99.90
680;DHT22;322;48.846;9.230;2022-12-07T16:21:35;4.50;99.90
680;DHT22;322;48.846;9.230;2022-12-07T16:24:02;4.50;99.90
680;DHT22;322;48.846;9.230;2022-12-07T16:26:28;4.60;99.90
680;DHT22;322;48.846;9.230;2022-12-07T16:28:55;4.50;99.90
680;DHT22;322;48.846;9.230;2022-12-07T16:31:24;4.40;99.90
680;DHT22;322;48.846;9.230;2022-12-07T16:33:53;4.40;99.90
680;DHT22;322;48.846;9.230;2022-12-07T16:36:21;4.30;99.90
680;DHT22;322;48.846;9.230;2022-12-07T16:38:52;4.30;99.90
680;DHT22;322;48.846;9.230;2022-12-07T16:41:19;4.20;99.90
680;DHT22;322;48.846;9.230;2022-12-07T16:43:46;4.20;99.90
680;DHT22;322;48.846;9.230;2022-12-07T16:46:12;4.00;99.90
680;DHT22;322;48.846;9.230;2022-12-07T16:48:40;3.80;99.90
680;DHT22;322;48.846;9.230;2022-12-07T16:51:09;3.70;99.90
680;DHT22;322;48.846;9.230;2022-12-07T16:53:37;3.70;99.90
680;DHT22;322;48.846;9.230;2022-12-07T16:56:10;3.60;99.90
680;DHT22;322;48.846;9.230;2022-12-07T16:58:37;3.50;99.90
680;DHT22;322;48.846;9.230;2022-12-07T17:01:09;3.50;99.90
680;DHT22;322;48.846;9.230;2022-12-07T17:03:36;3.60;99.90
680;DHT22;322;48.846;9.230;2022-12-07T17:06:03;3.60;99.90
680;DHT22;322;48.846;9.230;2022-12-07T17:08:30;3.60;99.90
680;DHT22;322;48.846;9.230;2022-12-07T17:10:57;3.60;99.90
680;DHT22;322;48.846;9.230;2022-12-07T17:13:25;3.60;99.90
680;DHT22;322;48.846;9.230;2022-12-07T17:16:09;3.70;99.90
680;DHT22;322;48.846;9.230;2022-12-07T17:18:36;3.80;99.90
680;DHT22;322;48.846;9.230;2022-12-07T17:21:04;3.80;99.90
680;DHT22;322;48.846;9.230;2022-12-07T17:23:32;3.80;99.90
680;DHT22;322;48.846;9.230;2022-12-07T17:26:04;3.90;99.90
680;DHT22;322;48.846;9.230;2022-12-07T17:28:33;3.90;99.90